createdAt,value
2023-01-17T00:02:07.303Z,97355.16
2023-01-17T00:04:53.194Z,97353.59
2023-01-17T00:07:41.488Z,97354.06
2023-01-17T00:10:12.208Z,97353.75
2023-01-17T00:12:40.535Z,97347.75
2023-01-17T00:15:10.020Z,97344.50
2023-01-17T00:17:39.545Z,97342.25
2023-01-17T00:20:25.828Z,97334.72
2023-01-17T00:23:11.183Z,97343.84
2023-01-17T00:25:56.970Z,97351.53
2023-01-17T00:28:24.086Z,97359.72
2023-01-17T00:30:50.843Z,97358.94
2023-01-17T00:33:19.488Z,97360.34
2023-01-17T00:35:46.803Z,97355.31
2023-01-17T00:38:15.322Z,97343.84
2023-01-17T00:40:43.845Z,97347.31
2023-01-17T00:43:30.549Z,97340.72
2023-01-17T00:46:16.220Z,97341.81
2023-01-17T00:49:03.496Z,97353.59
2023-01-17T00:51:50.190Z,97357.38
2023-01-17T00:54:35.540Z,97347.47
2023-01-17T00:57:20.906Z,97343.69
2023-01-17T01:00:06.897Z,97343.69
2023-01-17T01:02:52.996Z,97316.81
2023-01-17T01:05:40.027Z,97327.81
2023-01-17T01:08:35.505Z,97308.31
2023-01-17T01:11:23.765Z,97294.97
2023-01-17T01:14:09.511Z,97277.38
2023-01-17T01:16:55.345Z,97281.16
2023-01-17T01:19:40.959Z,97275.97
2023-01-17T01:22:27.739Z,97284.13
2023-01-17T01:25:13.169Z,97280.19
2023-01-17T01:27:58.304Z,97279.28
2023-01-17T01:30:43.554Z,97265.13
2023-01-17T01:33:20.950Z,97268.91
2023-01-17T01:35:50.641Z,97263.69
2023-01-17T01:38:21.547Z,97268.09
2023-01-17T01:40:52.019Z,97273.59
2023-01-17T01:43:21.739Z,97274.53
2023-01-17T01:45:54.224Z,97271.88
2023-01-17T01:48:36.886Z,97282.25
2023-01-17T01:51:09.075Z,97263.25
2023-01-17T01:53:41.913Z,97264.81
2023-01-17T01:56:13.746Z,97266.56
2023-01-17T01:58:43.020Z,97262.13
2023-01-17T02:01:11.349Z,97252.25
2023-01-17T02:03:42.072Z,97245.50
2023-01-17T02:06:21.875Z,97247.38
2023-01-17T02:08:51.488Z,97239.22
2023-01-17T02:11:20.229Z,97238.72
2023-01-17T02:13:48.247Z,97251.91
2023-01-17T02:16:39.057Z,97247.06
2023-01-17T02:19:30.985Z,97253.31
2023-01-17T02:22:16.533Z,97259.28
2023-01-17T02:25:04.701Z,97249.38
2023-01-17T02:27:46.633Z,97256.75
2023-01-17T02:30:34.983Z,97247.66
2023-01-17T02:33:28.643Z,97245.91
2023-01-17T02:36:06.767Z,97240.72
2023-01-17T02:38:45.481Z,97234.91
2023-01-17T02:41:20.375Z,97235.19
2023-01-17T02:43:50.360Z,97244.44
2023-01-17T02:46:19.806Z,97246.97
2023-01-17T02:48:49.012Z,97247.44
2023-01-17T02:51:39.540Z,97244.41
2023-01-17T02:54:27.668Z,97241.44
2023-01-17T02:57:07.484Z,97241.88
2023-01-17T02:59:46.810Z,97245.03
2023-01-17T03:02:28.762Z,97250.72
2023-01-17T03:05:02.842Z,97253.56
2023-01-17T03:07:31.588Z,97248.38
2023-01-17T03:10:02.252Z,97243.19
2023-01-17T03:12:31.051Z,97243.38
2023-01-17T03:14:59.107Z,97238.34
2023-01-17T03:17:33.460Z,97248.09
2023-01-17T03:20:01.372Z,97252.34
2023-01-17T03:22:29.357Z,97247.16
2023-01-17T03:24:57.421Z,97247.44
2023-01-17T03:27:25.567Z,97248.25
2023-01-17T03:29:53.489Z,97254.06
2023-01-17T03:32:21.453Z,97244.31
2023-01-17T03:34:50.787Z,97239.44
2023-01-17T03:37:18.746Z,97243.66
2023-01-17T03:39:46.679Z,97237.69
2023-01-17T03:42:14.713Z,97237.69
2023-01-17T03:44:42.695Z,97245.22
2023-01-17T03:47:12.235Z,97241.63
2023-01-17T03:49:40.595Z,97253.28
2023-01-17T03:52:09.895Z,97253.28
2023-01-17T03:54:37.874Z,97272.94
2023-01-17T03:57:06.329Z,97230.81
2023-01-17T03:59:34.368Z,97248.44
2023-01-17T04:02:02.940Z,97231.75
2023-01-17T04:04:31.060Z,97233.78
2023-01-17T04:06:59.007Z,97236.75
2023-01-17T04:09:28.401Z,97225.09
2023-01-17T04:11:56.348Z,97247.56
2023-01-17T04:14:24.415Z,97240.16
2023-01-17T04:16:52.499Z,97243.44
2023-01-17T04:19:20.649Z,97243.28
2023-01-17T04:21:48.559Z,97233.19
2023-01-17T04:24:18.062Z,97226.84
2023-01-17T04:26:47.600Z,97225.44
2023-01-17T04:29:15.512Z,97217.88
2023-01-17T04:31:43.500Z,97214.56
2023-01-17T04:34:11.582Z,97213.91
2023-01-17T04:36:39.524Z,97218.59
2023-01-17T04:39:07.963Z,97223.97
2023-01-17T04:41:36.059Z,97221.75
2023-01-17T04:44:05.598Z,97228.53
2023-01-17T04:46:33.653Z,97232.63
2023-01-17T04:49:01.634Z,97219.78
2023-01-17T04:51:29.733Z,97207.22
2023-01-17T04:53:57.779Z,97213.06
2023-01-17T04:56:25.965Z,97209.47
2023-01-17T04:58:53.986Z,97202.41
2023-01-17T05:01:23.351Z,97217.81
2023-01-17T05:03:51.386Z,97213.63
2023-01-17T05:06:19.333Z,97201.84
2023-01-17T05:08:47.237Z,97183.66
2023-01-17T05:11:15.204Z,97171.41
2023-01-17T05:13:43.161Z,97168.91
2023-01-17T05:16:11.163Z,97173.00
2023-01-17T05:18:40.571Z,97167.22
2023-01-17T05:21:08.505Z,97177.44
2023-01-17T05:23:36.532Z,97189.88
2023-01-17T05:26:04.445Z,97191.59
2023-01-17T05:28:32.618Z,97193.34
2023-01-17T05:31:00.724Z,97211.69
2023-01-17T05:33:28.787Z,97202.59
2023-01-17T05:35:58.201Z,97208.41
2023-01-17T05:38:26.194Z,97210.13
2023-01-17T05:40:54.112Z,97209.19
2023-01-17T05:43:22.903Z,97215.16
2023-01-17T05:45:50.827Z,97209.66
2023-01-17T05:48:18.777Z,97212.13
2023-01-17T05:50:46.755Z,97218.75
2023-01-17T05:53:17.355Z,97226.44
2023-01-17T05:55:45.697Z,97230.69
2023-01-17T05:58:17.807Z,97227.69
2023-01-17T06:00:46.551Z,97235.38
2023-01-17T06:03:14.865Z,97230.53
2023-01-17T06:05:44.932Z,97225.47
2023-01-17T06:08:12.924Z,97225.81
2023-01-17T06:10:42.565Z,97223.44
2023-01-17T06:13:14.312Z,97229.59
2023-01-17T06:15:43.070Z,97227.53
2023-01-17T06:18:13.174Z,97232.72
2023-01-17T06:20:42.093Z,97231.66
2023-01-17T06:23:15.129Z,97234.16
2023-01-17T06:25:46.072Z,97229.78
2023-01-17T06:28:15.648Z,97218.75
2023-01-17T06:30:44.059Z,97233.50
2023-01-17T06:33:12.871Z,97230.38
2023-01-17T06:35:43.133Z,97229.88
2023-01-17T06:38:11.537Z,97228.94
2023-01-17T06:40:39.409Z,97227.97
2023-01-17T06:43:08.795Z,97222.44
2023-01-17T06:45:37.615Z,97225.75
2023-01-17T06:48:06.700Z,97224.78
2023-01-17T06:50:35.241Z,97216.91
2023-01-17T06:53:04.855Z,97219.41
2023-01-17T06:55:35.926Z,97227.56
2023-01-17T06:58:03.906Z,97222.84
2023-01-17T07:00:35.975Z,97223.75
2023-01-17T07:03:04.441Z,97224.81
2023-01-17T07:05:32.899Z,97236.13
2023-01-17T07:08:00.973Z,97235.19
2023-01-17T07:10:28.963Z,97238.31
2023-01-17T07:13:00.094Z,97236.09
2023-01-17T07:15:28.028Z,97249.94
2023-01-17T07:17:57.470Z,97240.13
2023-01-17T07:20:25.461Z,97248.00
2023-01-17T07:22:53.441Z,97256.97
2023-01-17T07:25:21.410Z,97258.06
2023-01-17T07:27:49.560Z,97259.63
2023-01-17T07:30:18.080Z,97263.69
2023-01-17T07:32:46.067Z,97265.72
2023-01-17T07:35:15.579Z,97275.47
2023-01-17T07:37:48.758Z,97281.78
2023-01-17T07:40:17.658Z,97298.56
2023-01-17T07:42:46.248Z,97316.47
2023-01-17T07:45:16.045Z,97330.47
2023-01-17T07:47:43.917Z,97331.38
2023-01-17T07:50:13.609Z,97349.69
2023-01-17T07:52:42.981Z,97352.66
2023-01-17T07:55:11.608Z,97372.66
2023-01-17T07:57:39.640Z,97396.44
2023-01-17T08:00:09.290Z,97403.53
2023-01-17T08:02:37.216Z,97416.31
2023-01-17T08:05:05.750Z,97431.59
2023-01-17T08:07:33.799Z,97433.50
2023-01-17T08:10:03.130Z,97421.84
2023-01-17T08:12:31.047Z,97428.44
2023-01-17T08:14:58.978Z,97426.25
2023-01-17T08:17:27.321Z,97440.09
2023-01-17T08:19:55.235Z,97439.94
2023-01-17T08:22:23.203Z,97438.34
2023-01-17T08:24:51.127Z,97431.91
2023-01-17T08:27:20.487Z,97430.91
2023-01-17T08:29:49.396Z,97436.88
2023-01-17T08:32:17.387Z,97425.34
2023-01-17T08:34:45.305Z,97428.78
2023-01-17T08:37:13.237Z,97435.56
2023-01-17T08:39:41.179Z,97427.34
2023-01-17T08:42:09.209Z,97422.44
2023-01-17T08:44:39.833Z,97438.50
2023-01-17T08:47:07.905Z,97432.19
2023-01-17T08:49:35.946Z,97437.03
2023-01-17T08:52:04.311Z,97434.97
2023-01-17T08:54:32.520Z,97432.09
2023-01-17T08:57:00.667Z,97433.00
2023-01-17T08:59:28.934Z,97427.47
2023-01-17T09:02:01.275Z,97412.94
2023-01-17T09:04:29.428Z,97412.31
2023-01-17T09:06:57.555Z,97417.81
2023-01-17T09:09:25.651Z,97399.94
2023-01-17T09:11:54.389Z,97394.38
2023-01-17T09:14:22.409Z,97393.72
2023-01-17T09:16:51.013Z,97388.84
2023-01-17T09:19:20.440Z,97382.63
2023-01-17T09:21:48.402Z,97386.66
2023-01-17T09:24:16.460Z,97398.44
2023-01-17T09:26:44.401Z,97407.78
2023-01-17T09:29:13.708Z,97412.50
2023-01-17T09:31:42.269Z,97413.34
2023-01-17T09:34:10.190Z,97417.03
2023-01-17T09:36:39.446Z,97417.28
2023-01-17T09:39:08.320Z,97405.09
2023-01-17T09:41:39.660Z,97400.63
2023-01-17T09:44:24.685Z,97401.19
2023-01-17T09:46:55.128Z,97390.59
2023-01-17T09:49:33.649Z,97390.47
2023-01-17T09:52:04.296Z,97399.13
2023-01-17T09:54:36.457Z,97394.50
2023-01-17T09:57:13.394Z,97402.22
2023-01-17T10:00:02.653Z,97407.34
2023-01-17T10:02:52.284Z,97408.31
2023-01-17T10:05:44.393Z,97418.56
2023-01-17T10:08:28.091Z,97410.19
2023-01-17T10:11:26.509Z,97418.91
2023-01-17T10:14:07.626Z,97419.31
2023-01-17T10:16:46.145Z,97407.63
2023-01-17T10:19:34.443Z,97404.19
2023-01-17T10:22:25.340Z,97401.69
2023-01-17T10:25:33.138Z,97395.31
2023-01-17T10:28:05.988Z,97407.38
2023-01-17T10:30:40.385Z,97394.94
2023-01-17T10:33:16.511Z,97394.50
2023-01-17T10:35:57.951Z,97396.56
2023-01-17T10:38:31.924Z,97390.84
2023-01-17T10:41:10.046Z,97382.44
2023-01-17T10:43:47.546Z,97370.28
2023-01-17T10:46:20.285Z,97367.78
2023-01-17T10:48:51.012Z,97356.81
2023-01-17T10:52:06.557Z,97343.50
2023-01-17T10:54:50.006Z,97341.19
2023-01-17T10:57:22.965Z,97336.22
2023-01-17T10:59:52.008Z,97328.91
2023-01-17T11:02:25.572Z,97316.72
2023-01-17T11:04:55.747Z,97307.22
2023-01-17T11:07:25.894Z,97307.28
2023-01-17T11:09:55.622Z,97310.50
2023-01-17T11:12:30.204Z,97300.13
2023-01-17T11:15:04.996Z,97289.78
2023-01-17T11:17:34.038Z,97289.50
2023-01-17T11:20:10.040Z,97300.84
2023-01-17T11:22:38.403Z,97291.47
2023-01-17T11:25:08.160Z,97290.03
2023-01-17T11:27:39.545Z,97275.38
2023-01-17T11:30:18.027Z,97280.44
2023-01-17T11:32:53.978Z,97286.69
2023-01-17T11:35:25.492Z,97286.81
2023-01-17T11:38:06.207Z,97278.00
2023-01-17T11:40:39.419Z,97267.59
2023-01-17T11:43:24.251Z,97275.28
2023-01-17T11:46:07.185Z,97271.88
2023-01-17T11:48:37.592Z,97262.34
2023-01-17T11:51:15.302Z,97265.03
2023-01-17T11:53:48.111Z,97259.63
2023-01-17T11:56:23.085Z,97251.28
2023-01-17T11:58:52.495Z,97251.09
2023-01-17T12:01:37.033Z,97238.19
2023-01-17T12:04:29.804Z,97241.72
2023-01-17T12:07:19.182Z,97237.19
2023-01-17T12:09:55.068Z,97233.41
2023-01-17T12:12:52.828Z,97237.31
2023-01-17T12:15:35.204Z,97226.56
2023-01-17T12:18:33.503Z,97213.84
2023-01-17T12:21:11.911Z,97212.06
2023-01-17T12:24:03.037Z,97207.19
2023-01-17T12:26:41.476Z,97220.06
2023-01-17T12:29:42.848Z,97214.72
2023-01-17T12:32:28.828Z,97221.84
2023-01-17T12:35:01.828Z,97219.16
2023-01-17T12:37:37.042Z,97228.16
2023-01-17T12:40:15.704Z,97228.66
2023-01-17T12:42:49.673Z,97241.50
2023-01-17T12:45:22.632Z,97248.66
2023-01-17T12:47:59.676Z,97253.44
2023-01-17T12:50:33.756Z,97254.41
2023-01-17T12:53:07.707Z,97259.94
2023-01-17T12:55:41.414Z,97266.97
2023-01-17T12:58:17.562Z,97265.34
2023-01-17T13:00:47.903Z,97263.25
2023-01-17T13:03:27.275Z,97271.97
2023-01-17T13:05:58.639Z,97272.50
2023-01-17T13:08:34.390Z,97276.31
2023-01-17T13:11:07.983Z,97276.47
2023-01-17T13:13:36.786Z,97280.78
2023-01-17T13:16:09.023Z,97273.59
2023-01-17T13:18:43.528Z,97275.16
2023-01-17T13:21:35.769Z,97272.66
2023-01-17T13:24:31.775Z,97271.88
2023-01-17T13:27:28.313Z,97274.09
2023-01-17T13:30:05.784Z,97275.44
2023-01-17T13:32:53.856Z,97274.78
2023-01-17T13:35:35.967Z,97284.53
2023-01-17T13:38:20.404Z,97288.78
2023-01-17T13:40:54.045Z,97290.16
2023-01-17T13:43:25.761Z,97286.84
2023-01-17T13:45:55.830Z,97286.34
2023-01-17T13:48:32.574Z,97291.44
2023-01-17T13:51:03.799Z,97288.22
2023-01-17T13:53:56.351Z,97284.09
2023-01-17T13:56:37.332Z,97285.97
2023-01-17T13:59:30.739Z,97284.25
2023-01-17T14:01:58.838Z,97288.31
2023-01-17T14:05:05.505Z,97293.31
2023-01-17T14:07:37.231Z,97290.34
2023-01-17T14:10:23.131Z,97294.78
2023-01-17T14:12:51.681Z,97293.63
2023-01-17T14:15:21.911Z,97292.50
2023-01-17T14:17:59.222Z,97293.31
2023-01-17T14:21:07.244Z,97286.03
2023-01-17T14:24:04.526Z,97277.91
2023-01-17T14:26:41.310Z,97288.59
2023-01-17T14:29:49.470Z,97274.47
2023-01-17T14:32:20.167Z,97266.16
2023-01-17T14:34:51.137Z,97265.78
2023-01-17T14:37:31.300Z,97250.75
2023-01-17T14:40:01.675Z,97247.91
2023-01-17T14:42:31.735Z,97262.00
2023-01-17T14:45:04.233Z,97265.97
2023-01-17T14:47:35.296Z,97277.78
2023-01-17T14:50:24.869Z,97271.09
2023-01-17T14:53:19.093Z,97270.03
2023-01-17T14:56:15.884Z,97276.56
2023-01-17T14:58:46.512Z,97277.66
2023-01-17T15:01:16.722Z,97280.22
2023-01-17T15:03:46.453Z,97271.97
2023-01-17T15:06:18.848Z,97268.00
2023-01-17T15:08:47.962Z,97275.59
2023-01-17T15:11:25.264Z,97288.19
2023-01-17T15:13:55.104Z,97305.84
2023-01-17T15:16:26.202Z,97290.34
2023-01-17T15:18:57.294Z,97268.94
2023-01-17T15:21:28.653Z,97259.28
2023-01-17T15:23:58.964Z,97265.06
2023-01-17T15:26:30.981Z,97275.53
2023-01-17T15:29:04.097Z,97268.19
2023-01-17T15:31:50.927Z,97283.22
2023-01-17T15:34:29.403Z,97294.53
2023-01-17T15:36:59.628Z,97289.22
2023-01-17T15:39:30.884Z,97274.53
2023-01-17T15:42:04.532Z,97267.22
2023-01-17T15:44:47.529Z,97273.03
2023-01-17T15:47:30.852Z,97283.94
2023-01-17T15:50:01.068Z,97271.88
2023-01-17T15:52:29.659Z,97265.94
2023-01-17T15:55:00.788Z,97258.47
2023-01-17T15:57:36.939Z,97272.00
2023-01-17T16:00:09.406Z,97265.00
2023-01-17T16:02:45.548Z,97256.47
2023-01-17T16:05:34.410Z,97260.19
2023-01-17T16:08:25.571Z,97253.25
2023-01-17T16:10:56.750Z,97254.25
2023-01-17T16:13:26.125Z,97241.31
2023-01-17T16:15:54.395Z,97246.25
2023-01-17T16:18:25.071Z,97245.47
2023-01-17T16:21:00.051Z,97235.59
2023-01-17T16:23:27.758Z,97238.41
2023-01-17T16:25:55.698Z,97241.63
2023-01-17T16:28:25.132Z,97242.31
2023-01-17T16:30:54.377Z,97242.41
2023-01-17T16:33:22.384Z,97237.56
2023-01-17T16:35:53.300Z,97227.59
2023-01-17T16:38:21.200Z,97216.31
2023-01-17T16:40:49.539Z,97217.53
2023-01-17T16:43:20.045Z,97220.22
2023-01-17T16:45:52.698Z,97213.94
2023-01-17T16:48:21.294Z,97218.75
2023-01-17T16:50:52.141Z,97224.66
2023-01-17T16:53:24.706Z,97215.22
2023-01-17T16:55:55.262Z,97213.88
2023-01-17T16:58:23.292Z,97202.00
2023-01-17T17:00:52.679Z,97205.88
2023-01-17T17:03:22.148Z,97211.38
2023-01-17T17:05:56.900Z,97210.25
2023-01-17T17:08:25.291Z,97209.56
2023-01-17T17:10:53.351Z,97210.69
2023-01-17T17:13:21.395Z,97202.19
2023-01-17T17:15:49.415Z,97199.50
2023-01-17T17:18:19.571Z,97202.19
2023-01-17T17:20:49.520Z,97189.50
2023-01-17T17:23:17.493Z,97198.28
2023-01-17T17:25:45.505Z,97191.66
2023-01-17T17:28:13.569Z,97192.25
2023-01-17T17:30:41.481Z,97193.25
2023-01-17T17:33:10.677Z,97183.19
2023-01-17T17:35:39.943Z,97176.97
2023-01-17T17:38:07.912Z,97176.84
2023-01-17T17:40:36.272Z,97177.91
2023-01-17T17:43:04.163Z,97172.44
2023-01-17T17:45:32.121Z,97153.94
2023-01-17T17:48:00.067Z,97147.00
2023-01-17T17:50:28.071Z,97145.44
2023-01-17T17:52:57.343Z,97145.44
2023-01-17T17:55:25.443Z,97141.97
2023-01-17T17:57:53.962Z,97135.03
2023-01-17T18:00:23.136Z,97127.41
2023-01-17T18:02:51.068Z,97117.69
2023-01-17T18:05:19.014Z,97119.84
2023-01-17T18:07:47.034Z,97128.69
2023-01-17T18:10:17.263Z,97129.81
2023-01-17T18:12:46.642Z,97126.00
2023-01-17T18:15:15.048Z,97118.28
2023-01-17T18:17:43.036Z,97111.09
2023-01-17T18:20:12.841Z,97104.34
2023-01-17T18:22:42.187Z,97098.03
2023-01-17T18:25:11.732Z,97102.00
2023-01-17T18:27:45.182Z,97098.88
2023-01-17T18:30:13.700Z,97087.72
2023-01-17T18:32:42.711Z,97086.50
2023-01-17T18:35:11.181Z,97081.72
2023-01-17T18:37:40.336Z,97076.41
2023-01-17T18:40:09.327Z,97072.16
2023-01-17T18:42:37.232Z,97070.25
2023-01-17T18:45:08.372Z,97072.09
2023-01-17T18:47:38.783Z,97059.84
2023-01-17T18:50:09.724Z,97064.09
2023-01-17T18:52:38.761Z,97054.81
2023-01-17T18:55:07.641Z,97044.56
2023-01-17T18:57:36.747Z,97053.53
2023-01-17T19:00:11.610Z,97037.16
2023-01-17T19:02:39.504Z,97027.00
2023-01-17T19:05:09.643Z,97036.19
2023-01-17T19:07:38.069Z,97029.75
2023-01-17T19:10:07.820Z,97012.63
2023-01-17T19:12:38.155Z,97026.81
2023-01-17T19:15:11.648Z,97039.22
2023-01-17T19:17:39.587Z,97030.81
2023-01-17T19:20:09.052Z,97030.47
2023-01-17T19:22:37.034Z,97029.88
2023-01-17T19:25:05.934Z,97025.19
2023-01-17T19:27:33.887Z,97029.00
2023-01-17T19:30:02.021Z,97020.16
2023-01-17T19:32:31.369Z,97021.19
2023-01-17T19:34:59.530Z,97027.78
2023-01-17T19:37:28.081Z,97025.19
2023-01-17T19:40:00.332Z,97023.78
2023-01-17T19:42:28.789Z,97011.25
2023-01-17T19:44:57.008Z,97008.56
2023-01-17T19:47:24.974Z,96997.34
2023-01-17T19:49:54.268Z,97006.13
2023-01-17T19:52:24.042Z,96997.19
2023-01-17T19:54:52.882Z,96988.00
2023-01-17T19:57:22.100Z,96991.53
2023-01-17T19:59:50.051Z,96991.97
2023-01-17T20:02:18.446Z,96990.84
2023-01-17T20:04:46.597Z,96974.03
2023-01-17T20:07:15.925Z,96970.56
2023-01-17T20:09:44.027Z,96974.72
2023-01-17T20:12:12.321Z,96984.00
2023-01-17T20:14:40.263Z,96973.16
2023-01-17T20:17:08.195Z,96975.34
2023-01-17T20:19:36.176Z,96970.03
2023-01-17T20:22:05.440Z,96951.22
2023-01-17T20:24:35.091Z,96948.81
2023-01-17T20:27:03.052Z,96961.56
2023-01-17T20:29:30.979Z,96960.50
2023-01-17T20:31:58.993Z,96961.72
2023-01-17T20:34:27.204Z,96952.03
2023-01-17T20:36:57.493Z,96941.47
2023-01-17T20:39:25.446Z,96939.44
2023-01-17T20:41:54.739Z,96927.66
2023-01-17T20:44:23.837Z,96917.09
2023-01-17T20:46:51.775Z,96920.19
2023-01-17T20:49:21.804Z,96928.75
2023-01-17T20:51:50.125Z,96914.63
2023-01-17T20:54:23.489Z,96913.91
2023-01-17T20:56:51.445Z,96917.81
2023-01-17T20:59:22.506Z,96920.25
2023-01-17T21:01:51.772Z,96920.31
2023-01-17T21:04:25.617Z,96924.25
2023-01-17T21:06:54.796Z,96915.06
2023-01-17T21:09:22.770Z,96907.78
2023-01-17T21:11:51.421Z,96906.22
2023-01-17T21:14:21.846Z,96892.84
2023-01-17T21:16:50.641Z,96902.81
2023-01-17T21:19:20.400Z,96899.00
2023-01-17T21:21:50.128Z,96899.44
2023-01-17T21:24:19.189Z,96880.59
2023-01-17T21:26:47.680Z,96870.56
2023-01-17T21:29:16.449Z,96889.78
2023-01-17T21:31:45.819Z,96882.16
2023-01-17T21:34:14.601Z,96868.72
2023-01-17T21:36:43.567Z,96862.06
2023-01-17T21:39:15.847Z,96864.75
2023-01-17T21:41:46.761Z,96863.25
2023-01-17T21:44:20.431Z,96860.84
2023-01-17T21:46:54.164Z,96873.50
2023-01-17T21:49:23.988Z,96874.19
2023-01-17T21:52:09.316Z,96862.28
2023-01-17T21:54:54.107Z,96851.31
2023-01-17T21:57:40.438Z,96853.56
2023-01-17T22:00:10.622Z,96864.97
2023-01-17T22:02:41.002Z,96859.97
2023-01-17T22:05:10.299Z,96873.06
2023-01-17T22:07:39.457Z,96885.81
2023-01-17T22:10:08.457Z,96868.13
2023-01-17T22:12:36.412Z,96868.13
2023-01-17T22:15:04.614Z,96872.38
2023-01-17T22:17:32.649Z,96872.81
2023-01-17T22:20:02.133Z,96873.25
2023-01-17T22:22:33.048Z,96865.88
2023-01-17T22:25:00.953Z,96871.25
2023-01-17T22:27:29.704Z,96859.81
2023-01-17T22:29:57.632Z,96872.88
2023-01-17T22:32:25.577Z,96872.88
2023-01-17T22:34:53.604Z,96852.13
2023-01-17T22:37:22.909Z,96856.81
2023-01-17T22:39:50.837Z,96874.16
2023-01-17T22:42:18.799Z,96857.69
2023-01-17T22:44:47.803Z,96839.13
2023-01-17T22:47:15.798Z,96846.75
2023-01-17T22:49:43.792Z,96854.91
2023-01-17T22:52:11.817Z,96868.78
2023-01-17T22:54:41.165Z,96871.56
2023-01-17T22:57:09.129Z,96853.84
2023-01-17T22:59:37.069Z,96842.88
2023-01-17T23:02:05.048Z,96834.03
2023-01-17T23:04:33.175Z,96847.47
2023-01-17T23:07:01.460Z,96860.22
2023-01-17T23:09:29.508Z,96850.88
2023-01-17T23:11:58.917Z,96852.00
2023-01-17T23:14:29.419Z,96852.50
2023-01-17T23:17:16.633Z,96862.13
2023-01-17T23:19:46.600Z,96864.47
2023-01-17T23:22:22.428Z,96872.16
2023-01-17T23:24:52.994Z,96871.41
2023-01-17T23:27:41.701Z,96869.13
2023-01-17T23:30:12.883Z,96871.47
2023-01-17T23:32:44.711Z,96863.41
2023-01-17T23:35:12.897Z,96859.59
2023-01-17T23:37:58.047Z,96873.38
2023-01-17T23:40:26.018Z,96872.94
2023-01-17T23:43:12.967Z,96874.09
2023-01-17T23:45:41.118Z,96877.22
2023-01-17T23:48:10.781Z,96857.25
2023-01-17T23:50:39.833Z,96870.25
2023-01-17T23:53:08.555Z,96858.38
2023-01-17T23:55:38.212Z,96854.13
2023-01-17T23:58:09.423Z,96851.88
